| time (UTC) | temp F | wind direction | speed MPH | gust MPH | rain 1hr in | rain 24hr in | rain mn in | humidity % | barometer mb |
| 20260506143042 | 51 | 19 | 0.0 | 0.0 | 0.00 | 0.01 | 0.01 | 96 | 1021.3 |
| 20260506141506 | 51 | 19 | 0.0 | 1.0 | 0.00 | 0.01 | 0.01 | 96 | 1021.3 |
| 20260506140035 | 51 | 19 | 0.0 | 0.0 | 0.01 | 0.01 | 0.01 | 96 | 1020.9 |
| 20260506134516 | 51 | 19 | 0.0 | 0.0 | 0.01 | 0.01 | 0.01 | 96 | 1021.0 |
| 20260506133040 | 51 | 19 | 0.0 | 0.0 | 0.01 | 0.01 | 0.01 | 96 | 1020.9 |
| 20260506131534 | 51 | 19 | 0.0 | 0.0 | 0.01 | 0.01 | 0.01 | 96 | 1020.9 |
| 20260506130011 | 51 | 19 | 0.0 | 0.0 | 0.00 | 0.00 | 0.00 | 96 | 1020.9 |
| 20260506124547 | 51 | 19 | 0.0 | 0.0 | 0.00 | 0.00 | 0.00 | 96 | 1020.8 |
| 20260506123017 | 51 | 19 | 0.0 | 0.0 | 0.00 | 0.00 | 0.00 | 96 | 1020.8 |
| 20260506121550 | 51 | 19 | 0.0 | 1.0 | 0.00 | 0.00 | 0.00 | 96 | 1020.6 |
| 20260506120027 | 51 | 19 | 0.0 | 0.0 | 0.00 | 0.00 | 0.00 | 96 | 1020.5 |
| 20260506114606 | 50 | 19 | 0.0 | 0.0 | 0.00 | 0.00 | 0.00 | 96 | 1020.6 |
| 20260506113032 | 50 | 19 | 0.0 | 0.0 | 0.00 | 0.00 | 0.00 | 96 | 1020.4 |
| 20260506111508 | 50 | 19 | 0.0 | 0.0 | 0.00 | 0.00 | 0.00 | 96 | 1020.3 |
| 20260506110036 | 50 | 19 | 0.0 | 0.0 | 0.00 | 0.00 | 0.00 | 96 | 1020.0 |
| 20260506104516 | 49 | 19 | 0.0 | 0.0 | 0.00 | 0.00 | 0.00 | 96 | 1019.8 |
| 20260506103056 | 49 | 19 | 0.0 | 0.0 | 0.00 | 0.00 | 0.00 | 96 | 1019.7 |
| 20260506101545 | 49 | 19 | 0.0 | 0.0 | 0.00 | 0.00 | 0.00 | 96 | 1019.7 |
| 20260506100018 | 49 | 19 | 0.0 | 0.0 | 0.00 | 0.00 | 0.00 | 96 | 1019.7 |
| 20260506094615 | 49 | 19 | 0.0 | 0.0 | 0.00 | 0.00 | 0.00 | 95 | 1019.6 |
| 20260506093030 | 49 | 19 | 0.0 | 0.0 | 0.00 | 0.00 | 0.00 | 95 | 1019.7 |
| 20260506091558 | 49 | 19 | 0.0 | 0.0 | 0.00 | 0.00 | 0.00 | 96 | 1019.6 |
| 20260506090028 | 48 | 19 | 0.0 | 0.0 | 0.00 | 0.00 | 0.00 | 96 | 1019.6 |
| 20260506084504 | 48 | 19 | 0.0 | 0.0 | 0.00 | 0.00 | 0.00 | 95 | 1019.6 |
| 20260506083032 | 47 | 19 | 0.0 | 0.0 | 0.00 | 0.00 | 0.00 | 95 | 1019.4 |
| 20260506081508 | 47 | 19 | 0.0 | 0.0 | 0.00 | 0.00 | 0.00 | 95 | 1019.2 |
| 20260506073050 | 48 | 19 | 0.0 | 0.0 | 0.00 | 0.00 | 0.00 | 94 | 1018.8 |
| 20260506071544 | 48 | 19 | 0.0 | 0.0 | 0.00 | 0.00 | 0.00 | 94 | 1018.8 |
| 20260506061514 | 50 | 19 | 0.0 | 0.0 | 0.00 | 0.00 | 0.00 | 93 | 1018.5 |
| 20260506044536 | 52 | 19 | 0.0 | 0.0 | 0.00 | 0.00 | 0.00 | 91 | 1017.9 |
| 20260506043054 | 52 | 19 | 0.0 | 0.0 | 0.00 | 0.00 | 0.00 | 90 | 1017.7 |
| 20260506041532 | 53 | 19 | 0.0 | 0.0 | 0.00 | 0.00 | 0.00 | 90 | 1017.5 |
| 20260506040002 | 53 | 19 | 0.0 | 0.0 | 0.00 | 0.00 | 0.00 | 89 | 1017.4 |
| 20260506034536 | 54 | 19 | 0.0 | 0.0 | 0.00 | 0.00 | 0.00 | 88 | 1017.2 |
| 20260506033022 | 55 | 19 | 0.0 | 0.0 | 0.00 | 0.00 | 0.00 | 87 | 1017.1 |
| 20260506031526 | 55 | 19 | 0.0 | 0.0 | 0.00 | 0.00 | 0.00 | 86 | 1017.1 |
| 20260506030034 | 56 | 19 | 0.0 | 0.0 | 0.00 | 0.00 | 0.00 | 85 | 1017.0 |
| 20260506024519 | 57 | 19 | 0.0 | 0.0 | 0.00 | 0.00 | 0.00 | 84 | 1017.1 |
| 20260506023043 | 57 | 19 | 0.0 | 0.0 | 0.00 | 0.00 | 0.00 | 83 | 1017.0 |
| 20260506021522 | 58 | 19 | 0.0 | 0.0 | 0.00 | 0.00 | 0.00 | 81 | 1017.0 |
| 20260506020052 | 58 | 20 | 0.0 | 3.0 | 0.00 | 0.00 | 0.00 | 81 | 1016.9 |
| 20260506014533 | 58 | 15 | 1.0 | 5.0 | 0.00 | 0.00 | 0.00 | 80 | 1016.9 |
| 20260506013056 | 59 | 47 | 0.0 | 5.0 | 0.00 | 0.00 | 0.00 | 80 | 1016.9 |
| 20260506011538 | 59 | 40 | 0.0 | 5.0 | 0.00 | 0.00 | 0.00 | 80 | 1016.9 |
| 20260506010100 | 59 | 69 | 0.0 | 5.0 | 0.00 | 0.00 | 0.00 | 79 | 1017.0 |
| 20260506010012 | 59 | 69 | 0.0 | 5.0 | 0.00 | 0.00 | 0.00 | 79 | 1017.0 |
| 20260506004539 | 60 | 35 | 3.0 | 9.0 | 0.00 | 0.00 | 0.00 | 79 | 1017.0 |
| 20260506003013 | 60 | 29 | 3.0 | 9.0 | 0.00 | 0.00 | 0.00 | 79 | 1017.1 |
| 20260506001546 | 60 | 78 | 0.0 | 10.0 | 0.00 | 0.00 | 0.00 | 80 | 1017.0 |
| 20260506000038 | 61 | 71 | 1.0 | 6.0 | 0.00 | 0.00 | 0.00 | 79 | 1017.1 |
| 20260505234518 | 61 | 40 | 1.0 | 6.0 | 0.00 | 0.00 | 0.00 | 79 | 1017.2 |
| 20260505233053 | 61 | 22 | 2.0 | 10.0 | 0.00 | 0.00 | 0.00 | 80 | 1017.3 |
| 20260505231533 | 60 | 38 | 3.0 | 10.0 | 0.00 | 0.00 | 0.00 | 80 | 1017.3 |
| 20260505230054 | 61 | 36 | 5.0 | 10.0 | 0.00 | 0.00 | 0.00 | 79 | 1017.4 |
| 20260505224534 | 61 | 45 | 6.0 | 13.0 | 0.00 | 0.00 | 0.00 | 81 | 1017.5 |
| 20260505223056 | 60 | 25 | 6.0 | 13.0 | 0.00 | 0.00 | 0.00 | 82 | 1017.5 |
| 20260505221534 | 60 | 14 | 7.0 | 13.0 | 0.00 | 0.00 | 0.00 | 79 | 1017.7 |
| 20260505220057 | 61 | 53 | 2.0 | 11.0 | 0.00 | 0.00 | 0.00 | 83 | 1017.8 |
| 20260505220006 | 61 | 53 | 2.0 | 11.0 | 0.00 | 0.00 | 0.00 | 82 | 1017.8 |
| 20260505214547 | 59 | 14 | 7.0 | 11.0 | 0.00 | 0.00 | 0.00 | 82 | 1018.0 |
| 20260505213007 | 60 | 53 | 4.0 | 11.0 | 0.00 | 0.00 | 0.00 | 85 | 1018.2 |
| 20260505211546 | 60 | 51 | 7.0 | 13.0 | 0.00 | 0.00 | 0.00 | 84 | 1018.1 |
| 20260505210034 | 59 | 16 | 6.0 | 12.0 | 0.00 | 0.00 | 0.00 | 85 | 1018.1 |
| 20260505204508 | 60 | 61 | 5.0 | 10.0 | 0.00 | 0.00 | 0.00 | 85 | 1018.1 |
| 20260505203010 | 59 | 37 | 1.0 | 6.0 | 0.00 | 0.00 | 0.00 | 85 | 1018.2 |
| 20260505201545 | 57 | 38 | 4.0 | 9.0 | 0.00 | 0.00 | 0.00 | 88 | 1018.3 |
| 20260505200028 | 56 | 35 | 6.0 | 10.0 | 0.00 | 0.00 | 0.00 | 87 | 1018.4 |
| 20260505194607 | 57 | 16 | 5.0 | 10.0 | 0.00 | 0.00 | 0.00 | 87 | 1018.4 |
| 20260505193021 | 58 | 13 | 6.0 | 10.0 | 0.00 | 0.00 | 0.00 | 85 | 1018.3 |
| 20260505191555 | 59 | 196 | 0.0 | 4.0 | 0.00 | 0.00 | 0.00 | 85 | 1018.2 |
| 20260505190019 | 58 | 196 | 1.0 | 4.0 | 0.00 | 0.00 | 0.00 | 84 | 1018.3 |
| 20260505184553 | 58 | 198 | 0.0 | 3.0 | 0.00 | 0.00 | 0.00 | 87 | 1018.3 |
| 20260505183045 | 58 | 197 | 0.0 | 0.0 | 0.00 | 0.00 | 0.00 | 86 | 1018.3 |
| 20260505181521 | 57 | 197 | 0.0 | 2.0 | 0.00 | 0.00 | 0.00 | 87 | 1018.2 |
| 20260505180042 | 57 | 198 | 0.0 | 3.0 | 0.00 | 0.00 | 0.00 | 88 | 1018.2 |
| 20260505174519 | 56 | 196 | 0.0 | 5.0 | 0.00 | 0.00 | 0.00 | 88 | 1018.0 |
| 20260505173046 | 56 | 190 | 2.0 | 5.0 | 0.00 | 0.00 | 0.00 | 88 | 1018.0 |
| 20260505171524 | 56 | 228 | 0.0 | 3.0 | 0.00 | 0.00 | 0.00 | 89 | 1017.9 |
| 20260505170050 | 55 | 234 | 0.0 | 3.0 | 0.00 | 0.00 | 0.00 | 90 | 1018.1 |
| 20260505164529 | 55 | 187 | 0.0 | 1.0 | 0.00 | 0.00 | 0.00 | 91 | 1018.0 |
| 20260505163105 | 55 | 187 | 0.0 | 2.0 | 0.00 | 0.00 | 0.00 | 91 | 1017.9 |
| 20260505161536 | 55 | 39 | 0.0 | 3.0 | 0.00 | 0.00 | 0.00 | 92 | 1017.8 |
| 20260505153009 | 54 | 219 | 0.0 | 1.0 | 0.00 | 0.00 | 0.00 | 93 | 1017.5 |
| 20260505151555 | 54 | 32 | 0.0 | 0.0 | 0.00 | 0.00 | 0.00 | 93 | 1017.5 |